createdAt,value
2022-11-17T00:00:05.563Z,98226.67
2022-11-17T00:03:27.033Z,98223.41
2022-11-17T00:06:48.483Z,98223.52
2022-11-17T00:09:50.386Z,98228.36
2022-11-17T00:13:10.843Z,98227.61
2022-11-17T00:16:14.007Z,98232.16
2022-11-17T00:19:34.377Z,98230.46
2022-11-17T00:22:36.093Z,98232.69
2022-11-17T00:25:37.808Z,98234.83
2022-11-17T00:28:39.389Z,98236.21
2022-11-17T00:31:59.658Z,98233.21
2022-11-17T00:35:01.964Z,98225.92
2022-11-17T00:38:15.474Z,98229.46
2022-11-17T00:41:17.234Z,98233.34
2022-11-17T00:44:19.055Z,98237.20
2022-11-17T00:47:21.119Z,98242.80
2022-11-17T00:50:24.276Z,98249.20
2022-11-17T00:53:25.845Z,98250.02
2022-11-17T00:56:28.035Z,98248.93
2022-11-17T00:59:29.813Z,98247.35
2022-11-17T01:02:31.601Z,98246.96
2022-11-17T01:05:34.456Z,98252.01
2022-11-17T01:08:36.767Z,98247.55
2022-11-17T01:11:38.383Z,98247.23
2022-11-17T01:14:45.691Z,98244.81
2022-11-17T01:17:47.217Z,98245.80
2022-11-17T01:20:48.813Z,98245.27
2022-11-17T01:23:52.601Z,98245.66
2022-11-17T01:26:54.309Z,98241.91
2022-11-17T01:29:55.839Z,98241.17
2022-11-17T01:32:57.455Z,98239.21
2022-11-17T01:36:12.023Z,98237.70
2022-11-17T01:39:13.805Z,98236.73
2022-11-17T01:42:21.328Z,98234.17
2022-11-17T01:45:24.892Z,98233.42
2022-11-17T01:48:26.617Z,98230.81
2022-11-17T01:51:28.317Z,98225.45
2022-11-17T01:54:32.328Z,98222.95
2022-11-17T01:57:39.355Z,98221.64
2022-11-17T02:00:41.764Z,98209.39
2022-11-17T02:03:44.815Z,98205.62
2022-11-17T02:06:46.501Z,98206.13
2022-11-17T02:09:48.849Z,98208.58
2022-11-17T02:12:50.615Z,98217.38
2022-11-17T02:15:52.172Z,98222.98
2022-11-17T02:18:54.133Z,98225.92
2022-11-17T02:22:14.954Z,98219.18
2022-11-17T02:25:23.004Z,98221.84
2022-11-17T02:28:30.435Z,98229.29
2022-11-17T02:31:58.443Z,98229.94
2022-11-17T02:35:23.579Z,98232.98
2022-11-17T02:39:02.624Z,98235.31
2022-11-17T02:42:44.900Z,98234.19
2022-11-17T02:46:08.686Z,98232.30
2022-11-17T02:49:20.031Z,98230.23
2022-11-17T02:52:22.030Z,98229.09
2022-11-17T02:55:23.885Z,98229.63
2022-11-17T02:58:25.393Z,98230.01
2022-11-17T03:02:05.042Z,98229.46
2022-11-17T03:05:16.640Z,98225.20
2022-11-17T03:08:42.562Z,98215.69
2022-11-17T03:11:55.432Z,98211.98
2022-11-17T03:15:13.925Z,98196.25
2022-11-17T03:18:23.042Z,98199.96
2022-11-17T03:21:40.460Z,98199.80
2022-11-17T03:24:47.300Z,98203.13
2022-11-17T03:27:53.037Z,98201.92
2022-11-17T03:30:56.308Z,98205.89
2022-11-17T03:33:58.281Z,98215.89
2022-11-17T03:37:02.760Z,98229.04
2022-11-17T03:40:08.711Z,98231.48
2022-11-17T03:43:13.327Z,98231.81
2022-11-17T03:46:16.496Z,98228.06
2022-11-17T03:49:25.510Z,98220.92
2022-11-17T03:52:29.756Z,98220.11
2022-11-17T03:55:43.582Z,98221.09
2022-11-17T03:59:19.201Z,98227.71
2022-11-17T04:02:21.867Z,98229.19
2022-11-17T04:05:23.586Z,98233.33
2022-11-17T04:08:29.611Z,98234.30
2022-11-17T04:11:50.154Z,98229.89
2022-11-17T04:15:10.406Z,98234.24
2022-11-17T04:18:15.851Z,98232.61
2022-11-17T04:21:17.620Z,98230.52
2022-11-17T04:24:19.199Z,98228.67
2022-11-17T04:27:39.650Z,98228.20
2022-11-17T04:30:41.427Z,98230.52
2022-11-17T04:33:45.729Z,98229.80
2022-11-17T04:36:47.425Z,98232.36
2022-11-17T04:39:48.974Z,98235.67
2022-11-17T04:42:50.576Z,98236.65
2022-11-17T04:45:52.206Z,98244.80
2022-11-17T04:48:54.852Z,98239.95
2022-11-17T04:51:56.523Z,98242.66
2022-11-17T04:54:58.102Z,98246.02
2022-11-17T04:57:59.814Z,98247.16
2022-11-17T05:01:13.768Z,98251.58
2022-11-17T05:04:37.379Z,98259.80
2022-11-17T05:07:39.001Z,98257.23
2022-11-17T05:11:00.311Z,98255.13
2022-11-17T05:14:03.414Z,98244.02
2022-11-17T05:17:09.497Z,98236.45
2022-11-17T05:20:12.391Z,98246.98
2022-11-17T05:23:33.208Z,98253.33
2022-11-17T05:26:36.757Z,98258.49
2022-11-17T05:29:38.465Z,98255.90
2022-11-17T05:32:40.180Z,98254.92
2022-11-17T05:35:42.168Z,98252.47
2022-11-17T05:38:44.387Z,98253.09
2022-11-17T05:41:46.069Z,98247.73
2022-11-17T05:44:48.641Z,98254.34
2022-11-17T05:47:50.514Z,98261.64
2022-11-17T05:50:55.371Z,98264.09
2022-11-17T05:53:56.993Z,98264.50
2022-11-17T05:57:03.533Z,98264.90
2022-11-17T06:00:05.862Z,98263.81
2022-11-17T06:03:14.536Z,98270.27
2022-11-17T06:06:16.363Z,98271.41
2022-11-17T06:09:18.078Z,98274.29
2022-11-17T06:12:20.253Z,98279.66
2022-11-17T06:15:21.837Z,98284.98
2022-11-17T06:18:27.773Z,98287.91
2022-11-17T06:21:43.128Z,98287.25
2022-11-17T06:24:51.388Z,98283.89
2022-11-17T06:27:56.778Z,98278.58
2022-11-17T06:30:59.240Z,98286.55
2022-11-17T06:34:02.448Z,98292.19
2022-11-17T06:37:04.326Z,98295.95
2022-11-17T06:40:06.088Z,98305.50
2022-11-17T06:43:10.679Z,98308.98
2022-11-17T06:46:12.409Z,98311.25
2022-11-17T06:49:14.059Z,98320.36
2022-11-17T06:52:16.414Z,98330.14
2022-11-17T06:55:18.655Z,98330.46
2022-11-17T06:58:20.742Z,98327.36
2022-11-17T07:01:22.442Z,98326.66
2022-11-17T07:04:24.157Z,98318.73
2022-11-17T07:07:26.038Z,98317.22
2022-11-17T07:10:28.629Z,98321.08
2022-11-17T07:13:32.408Z,98325.35
2022-11-17T07:16:34.116Z,98329.44
2022-11-17T07:19:35.756Z,98326.08
2022-11-17T07:22:38.277Z,98329.32
2022-11-17T07:25:41.609Z,98334.81
2022-11-17T07:28:46.400Z,98332.04
2022-11-17T07:31:48.309Z,98333.55
2022-11-17T07:34:50.686Z,98333.00
2022-11-17T07:37:56.200Z,98333.44
2022-11-17T07:41:00.164Z,98323.66
2022-11-17T07:44:01.921Z,98321.49
2022-11-17T07:47:03.475Z,98317.98
2022-11-17T07:50:05.603Z,98325.41
2022-11-17T07:53:07.268Z,98335.94
2022-11-17T07:56:11.198Z,98335.17
2022-11-17T07:59:17.157Z,98338.22
2022-11-17T08:02:21.905Z,98336.14
2022-11-17T08:05:24.586Z,98340.94
2022-11-17T08:08:26.265Z,98342.23
2022-11-17T08:11:27.947Z,98348.96
2022-11-17T08:14:30.239Z,98348.46
2022-11-17T08:17:32.285Z,98351.23
2022-11-17T08:20:33.914Z,98349.66
2022-11-17T08:23:36.114Z,98343.56
2022-11-17T08:26:37.840Z,98352.48
2022-11-17T08:29:39.352Z,98352.20
2022-11-17T08:32:50.122Z,98356.53
2022-11-17T08:35:51.884Z,98355.83
2022-11-17T08:38:53.744Z,98347.02
2022-11-17T08:41:55.600Z,98348.89
2022-11-17T08:44:57.309Z,98349.86
2022-11-17T08:47:59.165Z,98348.89
2022-11-17T08:51:07.296Z,98357.53
2022-11-17T08:54:11.834Z,98365.03
2022-11-17T08:57:13.609Z,98368.45
2022-11-17T09:00:16.463Z,98369.38
2022-11-17T09:03:18.139Z,98371.50
2022-11-17T09:06:20.225Z,98366.77
2022-11-17T09:09:22.076Z,98363.67
2022-11-17T09:12:26.558Z,98365.67
2022-11-17T09:15:28.359Z,98366.55
2022-11-17T09:18:30.197Z,98363.02
2022-11-17T09:21:32.872Z,98368.55
2022-11-17T09:24:34.670Z,98373.73
2022-11-17T09:27:36.910Z,98372.14
2022-11-17T09:30:38.573Z,98371.98
2022-11-17T09:33:40.415Z,98376.17
2022-11-17T09:36:42.307Z,98377.52
2022-11-17T09:39:44.327Z,98379.10
2022-11-17T09:42:46.561Z,98371.65
2022-11-17T09:45:49.125Z,98372.36
2022-11-17T09:49:07.069Z,98365.09
2022-11-17T09:52:21.249Z,98366.13
2022-11-17T09:55:39.100Z,98364.66
2022-11-17T09:59:04.340Z,98363.02
2022-11-17T10:02:10.366Z,98363.57
2022-11-17T10:05:14.325Z,98360.58
2022-11-17T10:08:19.064Z,98363.73
2022-11-17T10:11:33.230Z,98367.00
2022-11-17T10:14:36.537Z,98368.73
2022-11-17T10:17:39.549Z,98363.95
2022-11-17T10:20:42.975Z,98362.04
2022-11-17T10:23:47.620Z,98354.65
2022-11-17T10:26:49.634Z,98352.42
2022-11-17T10:29:57.064Z,98356.13
2022-11-17T10:33:00.889Z,98356.94
2022-11-17T10:36:03.994Z,98347.59
2022-11-17T10:39:33.080Z,98345.25
2022-11-17T10:42:34.706Z,98345.30
2022-11-17T10:45:36.420Z,98351.16
2022-11-17T10:48:39.315Z,98356.70
2022-11-17T10:51:40.971Z,98351.31
2022-11-17T10:54:42.745Z,98349.13
2022-11-17T10:57:44.888Z,98346.45
2022-11-17T11:01:02.279Z,98351.13
2022-11-17T11:04:06.311Z,98360.59
2022-11-17T11:07:20.653Z,98366.29
2022-11-17T11:10:32.837Z,98360.09
2022-11-17T11:14:08.277Z,98361.45
2022-11-17T11:17:14.816Z,98364.45
2022-11-17T11:20:19.436Z,98371.20
2022-11-17T11:23:34.961Z,98368.83
2022-11-17T11:27:11.719Z,98369.31
2022-11-17T11:30:16.142Z,98372.52
2022-11-17T11:33:23.747Z,98374.64
2022-11-17T11:36:48.514Z,98376.10
2022-11-17T11:40:21.881Z,98379.23
2022-11-17T11:43:30.284Z,98378.90
2022-11-17T11:46:47.457Z,98371.98
2022-11-17T11:49:52.836Z,98370.03
2022-11-17T11:52:59.867Z,98370.98
2022-11-17T11:56:10.392Z,98374.90
2022-11-17T11:59:28.858Z,98376.31
2022-11-17T12:02:48.884Z,98373.64
2022-11-17T12:06:43.330Z,98371.46
2022-11-17T12:10:21.429Z,98370.60
2022-11-17T12:13:24.224Z,98368.85
2022-11-17T12:16:32.542Z,98366.89
2022-11-17T12:19:54.250Z,98367.01
2022-11-17T12:23:18.308Z,98366.84
2022-11-17T12:26:22.590Z,98365.32
2022-11-17T12:29:28.111Z,98364.56
2022-11-17T12:32:53.679Z,98353.54
2022-11-17T12:36:30.414Z,98347.74
2022-11-17T12:39:55.963Z,98348.95
2022-11-17T12:43:30.619Z,98352.75
2022-11-17T12:46:33.447Z,98375.52
2022-11-17T12:49:59.970Z,98375.90
2022-11-17T12:53:18.444Z,98367.92
2022-11-17T12:56:46.487Z,98367.86
2022-11-17T13:00:11.013Z,98375.14
2022-11-17T13:03:16.804Z,98385.08
2022-11-17T13:06:35.074Z,98380.66
2022-11-17T13:09:37.871Z,98392.63
2022-11-17T13:12:39.512Z,98399.97
2022-11-17T13:15:41.520Z,98398.82
2022-11-17T13:18:43.473Z,98398.77
2022-11-17T13:21:45.647Z,98400.88
2022-11-17T13:24:50.926Z,98398.60
2022-11-17T13:27:57.275Z,98409.88
2022-11-17T13:31:01.276Z,98416.77
2022-11-17T13:34:08.034Z,98415.86
2022-11-17T13:37:19.246Z,98407.17
2022-11-17T13:40:22.232Z,98401.59
2022-11-17T13:43:25.658Z,98398.98
2022-11-17T13:46:27.515Z,98401.79
2022-11-17T13:49:39.488Z,98404.35
2022-11-17T13:52:46.925Z,98399.84
2022-11-17T13:55:49.683Z,98395.77
2022-11-17T13:58:52.156Z,98397.23
2022-11-17T14:02:16.070Z,98400.66
2022-11-17T14:05:18.729Z,98400.17
2022-11-17T14:08:27.364Z,98403.52
2022-11-17T14:11:29.358Z,98415.96
2022-11-17T14:14:34.830Z,98424.11
2022-11-17T14:17:36.817Z,98421.77
2022-11-17T14:20:38.576Z,98423.66
2022-11-17T14:23:41.286Z,98420.13
2022-11-17T14:26:44.981Z,98410.69
2022-11-17T14:29:46.710Z,98408.08
2022-11-17T14:32:48.554Z,98401.09
2022-11-17T14:35:53.841Z,98396.24
2022-11-17T14:38:55.784Z,98392.61
2022-11-17T14:41:58.170Z,98385.55
2022-11-17T14:44:59.950Z,98386.73
2022-11-17T14:48:02.752Z,98385.05
2022-11-17T14:51:04.542Z,98391.95
2022-11-17T14:54:06.532Z,98394.17
2022-11-17T14:57:08.367Z,98399.02
2022-11-17T15:00:14.505Z,98406.92
2022-11-17T15:03:17.734Z,98411.73
2022-11-17T15:06:20.592Z,98405.23
2022-11-17T15:09:22.803Z,98399.52
2022-11-17T15:12:25.174Z,98399.52
2022-11-17T15:15:27.124Z,98395.39
2022-11-17T15:18:28.935Z,98391.36
2022-11-17T15:21:30.701Z,98388.83
2022-11-17T15:24:32.232Z,98388.16
2022-11-17T15:27:33.939Z,98387.23
2022-11-17T15:30:35.528Z,98387.72
2022-11-17T15:33:37.565Z,98381.54
2022-11-17T15:36:39.352Z,98383.77
2022-11-17T15:39:41.087Z,98378.05
2022-11-17T15:42:42.803Z,98374.09
2022-11-17T15:45:44.648Z,98370.68
2022-11-17T15:48:46.925Z,98368.19
2022-11-17T15:51:48.656Z,98358.86
2022-11-17T15:54:50.245Z,98351.85
2022-11-17T15:57:53.613Z,98349.10
2022-11-17T16:00:55.330Z,98358.05
2022-11-17T16:03:57.722Z,98360.31
2022-11-17T16:06:59.912Z,98361.83
2022-11-17T16:10:01.825Z,98367.05
2022-11-17T16:13:03.590Z,98365.08
2022-11-17T16:16:05.656Z,98369.73
2022-11-17T16:19:07.457Z,98361.45
2022-11-17T16:22:09.334Z,98364.44
2022-11-17T16:25:11.104Z,98360.36
2022-11-17T16:28:13.734Z,98358.63
2022-11-17T16:31:18.002Z,98359.27
2022-11-17T16:34:19.873Z,98357.55
2022-11-17T16:37:21.833Z,98357.10
2022-11-17T16:40:23.451Z,98353.34
2022-11-17T16:43:25.021Z,98353.52
2022-11-17T16:46:29.204Z,98351.89
2022-11-17T16:49:32.754Z,98361.70
2022-11-17T16:52:34.633Z,98364.40
2022-11-17T16:55:37.419Z,98369.44
2022-11-17T16:58:39.227Z,98375.08
2022-11-17T17:01:41.384Z,98378.01
2022-11-17T17:04:43.169Z,98373.40
2022-11-17T17:07:44.788Z,98368.45
2022-11-17T17:10:48.227Z,98371.34
2022-11-17T17:13:49.956Z,98372.31
2022-11-17T17:16:51.669Z,98378.43
2022-11-17T17:19:53.346Z,98381.31
2022-11-17T17:22:57.838Z,98383.75
2022-11-17T17:26:12.545Z,98382.92
2022-11-17T17:29:14.498Z,98383.14
2022-11-17T17:32:16.472Z,98384.08
2022-11-17T17:35:18.289Z,98385.44
2022-11-17T17:38:19.900Z,98385.96
2022-11-17T17:41:22.658Z,98389.73
2022-11-17T17:44:24.302Z,98392.65
2022-11-17T17:47:25.905Z,98389.29
2022-11-17T17:50:27.642Z,98386.48
2022-11-17T17:53:29.288Z,98384.46
2022-11-17T17:56:34.684Z,98378.39
2022-11-17T17:59:36.444Z,98378.89
2022-11-17T18:02:38.098Z,98375.64
2022-11-17T18:05:39.798Z,98369.94
2022-11-17T18:08:41.509Z,98373.84
2022-11-17T18:11:48.005Z,98370.70
2022-11-17T18:14:49.791Z,98364.93
2022-11-17T18:17:51.307Z,98370.85
2022-11-17T18:21:06.862Z,98369.80
2022-11-17T18:24:10.489Z,98372.46
2022-11-17T18:27:12.082Z,98368.34
2022-11-17T18:30:13.774Z,98364.65
2022-11-17T18:33:16.347Z,98366.81
2022-11-17T18:36:18.306Z,98363.02
2022-11-17T18:39:21.451Z,98358.02
2022-11-17T18:42:23.253Z,98356.73
2022-11-17T18:45:24.888Z,98355.86
2022-11-17T18:48:26.728Z,98351.02
2022-11-17T18:51:29.600Z,98353.63
2022-11-17T18:54:31.389Z,98348.24
2022-11-17T18:57:32.975Z,98346.60
2022-11-17T19:00:34.557Z,98349.59
2022-11-17T19:03:36.920Z,98347.90
2022-11-17T19:06:38.617Z,98347.04
2022-11-17T19:09:40.166Z,98343.45
2022-11-17T19:12:41.830Z,98343.30
2022-11-17T19:15:43.442Z,98341.02
2022-11-17T19:18:47.994Z,98340.85
2022-11-17T19:21:54.237Z,98333.31
2022-11-17T19:24:56.289Z,98337.70
2022-11-17T19:27:58.968Z,98336.23
2022-11-17T19:31:09.675Z,98335.08
2022-11-17T19:34:14.510Z,98335.49
2022-11-17T19:37:16.477Z,98332.99
2022-11-17T19:40:21.278Z,98335.27
2022-11-17T19:43:22.891Z,98330.05
2022-11-17T19:46:31.386Z,98326.29
2022-11-17T19:49:33.072Z,98323.73
2022-11-17T19:52:35.008Z,98318.35
2022-11-17T19:55:36.753Z,98314.57
2022-11-17T19:58:39.853Z,98306.96
2022-11-17T20:01:43.509Z,98305.14
2022-11-17T20:04:46.067Z,98310.96
2022-11-17T20:07:48.177Z,98309.16
2022-11-17T20:10:49.804Z,98312.41
2022-11-17T20:13:51.860Z,98312.68
2022-11-17T20:16:56.598Z,98318.92
2022-11-17T20:19:58.392Z,98327.88
2022-11-17T20:23:00.164Z,98327.58
2022-11-17T20:26:06.240Z,98324.39
2022-11-17T20:29:08.123Z,98322.49
2022-11-17T20:32:09.743Z,98319.56
2022-11-17T20:35:11.622Z,98325.05
2022-11-17T20:38:15.864Z,98327.02
2022-11-17T20:41:18.428Z,98325.81
2022-11-17T20:44:26.081Z,98329.87
2022-11-17T20:47:27.802Z,98338.13
2022-11-17T20:50:29.593Z,98334.50
2022-11-17T20:53:31.828Z,98324.80
2022-11-17T20:56:33.737Z,98319.58
2022-11-17T20:59:35.503Z,98321.03
2022-11-17T21:02:37.131Z,98316.92
2022-11-17T21:05:38.777Z,98320.86
2022-11-17T21:08:42.491Z,98322.81
2022-11-17T21:11:56.798Z,98323.25
2022-11-17T21:14:58.491Z,98319.62
2022-11-17T21:18:18.693Z,98317.15
2022-11-17T21:21:20.778Z,98317.11
2022-11-17T21:24:22.693Z,98312.47
2022-11-17T21:27:24.433Z,98304.52
2022-11-17T21:30:25.969Z,98297.08
2022-11-17T21:33:27.664Z,98287.96
2022-11-17T21:36:30.889Z,98281.64
2022-11-17T21:39:32.475Z,98278.52
2022-11-17T21:42:34.439Z,98278.04
2022-11-17T21:45:36.002Z,98277.58
2022-11-17T21:48:38.057Z,98273.83
2022-11-17T21:51:39.649Z,98269.26
2022-11-17T21:54:41.337Z,98256.62
2022-11-17T21:57:43.026Z,98252.23
2022-11-17T22:00:45.082Z,98255.11
2022-11-17T22:03:46.771Z,98247.34
2022-11-17T22:06:48.633Z,98241.08
2022-11-17T22:09:50.091Z,98240.70
2022-11-17T22:12:51.699Z,98233.05
2022-11-17T22:15:54.067Z,98228.13
2022-11-17T22:18:55.859Z,98225.30
2022-11-17T22:21:57.446Z,98222.48
2022-11-17T22:25:11.463Z,98213.98
2022-11-17T22:28:21.455Z,98216.43
2022-11-17T22:31:23.400Z,98222.13
2022-11-17T22:34:25.165Z,98228.09
2022-11-17T22:37:27.243Z,98228.59
2022-11-17T22:40:28.765Z,98233.63
2022-11-17T22:43:30.612Z,98236.90
2022-11-17T22:46:32.474Z,98238.36
2022-11-17T22:49:34.185Z,98233.88
2022-11-17T22:52:35.945Z,98232.73
2022-11-17T22:55:37.770Z,98233.65
2022-11-17T22:58:39.447Z,98231.11
2022-11-17T23:01:40.940Z,98223.20
2022-11-17T23:04:42.732Z,98222.39
2022-11-17T23:07:44.565Z,98220.71
2022-11-17T23:10:46.379Z,98223.04
2022-11-17T23:13:48.202Z,98222.39
2022-11-17T23:16:49.904Z,98217.52
2022-11-17T23:19:51.518Z,98216.42
2022-11-17T23:22:54.726Z,98211.66
2022-11-17T23:26:01.648Z,98213.02
2022-11-17T23:29:03.432Z,98209.80
2022-11-17T23:32:05.225Z,98200.60
2022-11-17T23:35:07.454Z,98197.14
2022-11-17T23:38:11.617Z,98195.02
2022-11-17T23:41:15.412Z,98195.29
2022-11-17T23:44:17.195Z,98190.20
2022-11-17T23:47:18.897Z,98180.33
2022-11-17T23:50:20.686Z,98173.07
2022-11-17T23:53:22.306Z,98171.38
2022-11-17T23:56:24.035Z,98168.51
2022-11-17T23:59:25.702Z,98165.73
